createdAt,value
2023-06-08T03:56:49.086Z,17.16
2023-06-08T03:59:51.615Z,17.15
2023-06-08T04:02:54.308Z,17.14
2023-06-08T04:05:57.870Z,17.20
2023-06-08T04:09:01.321Z,17.24
2023-06-08T04:12:04.376Z,17.35
2023-06-08T04:15:07.547Z,17.40
2023-06-08T04:18:12.968Z,17.45
2023-06-08T04:21:15.867Z,17.52
2023-06-08T04:24:18.752Z,17.67
2023-06-08T04:27:21.095Z,17.71
2023-06-08T04:30:23.704Z,17.70
2023-06-08T04:33:27.776Z,17.65
2023-06-08T04:36:30.823Z,17.68
2023-06-08T04:39:33.241Z,17.68
2023-06-08T04:42:35.721Z,17.75
2023-06-08T04:45:38.462Z,17.82
2023-06-08T04:48:40.929Z,17.81
2023-06-08T04:51:47.264Z,17.82
2023-06-08T04:54:53.759Z,17.76
2023-06-08T04:57:56.606Z,17.70
2023-06-08T05:00:59.497Z,17.76
2023-06-08T05:04:02.871Z,17.74
2023-06-08T05:07:05.910Z,17.86
2023-06-08T05:10:08.740Z,17.82
2023-06-08T05:13:11.471Z,17.84
2023-06-08T05:16:13.910Z,17.92
2023-06-08T05:19:16.435Z,17.95
2023-06-08T05:22:18.829Z,17.96
2023-06-08T05:25:21.392Z,17.91
2023-06-08T05:28:23.727Z,17.94
2023-06-08T05:31:27.969Z,18.04
2023-06-08T05:34:30.282Z,18.13
2023-06-08T05:37:32.934Z,18.09
2023-06-08T05:40:35.654Z,18.17
2023-06-08T05:43:38.108Z,18.24
2023-06-08T05:46:40.499Z,18.21
2023-06-08T05:49:42.980Z,18.22
2023-06-08T05:52:45.605Z,18.25
2023-06-08T05:55:48.301Z,18.28
2023-06-08T05:58:50.826Z,18.28
2023-06-08T06:01:54.537Z,18.43
2023-06-08T06:04:57.561Z,18.47
2023-06-08T06:07:59.924Z,18.45
2023-06-08T06:11:02.374Z,18.47
2023-06-08T06:14:04.584Z,18.49
2023-06-08T06:17:09.057Z,18.50
2023-06-08T06:20:11.757Z,18.44
2023-06-08T06:23:14.240Z,18.43
2023-06-08T06:26:17.426Z,18.50
2023-06-08T06:29:19.956Z,18.58
2023-06-08T06:32:22.487Z,18.71
2023-06-08T06:35:25.768Z,18.73
2023-06-08T06:38:27.993Z,18.69
2023-06-08T06:41:30.508Z,18.73
2023-06-08T06:44:32.646Z,18.77
2023-06-08T06:47:35.424Z,18.70
2023-06-08T06:50:37.658Z,18.89
2023-06-08T06:53:40.204Z,18.86
2023-06-08T06:56:42.717Z,18.75
2023-06-08T06:59:47.283Z,18.86
2023-06-08T07:02:49.935Z,18.80
2023-06-08T07:05:52.422Z,18.86
2023-06-08T07:08:54.648Z,18.93
2023-06-08T07:12:13.583Z,18.95
2023-06-08T07:15:18.240Z,18.99
2023-06-08T07:18:21.188Z,19.10
2023-06-08T07:21:27.626Z,19.17
2023-06-08T07:25:23.324Z,19.18
2023-06-08T07:27:59.221Z,19.26
2023-06-08T07:31:01.788Z,19.24
2023-06-08T07:34:05.514Z,19.17
2023-06-08T07:37:07.962Z,19.06
2023-06-08T07:40:12.417Z,19.13
2023-06-08T07:43:14.951Z,19.16
2023-06-08T07:46:17.253Z,19.24
2023-06-08T07:49:19.766Z,19.37
2023-06-08T07:52:21.967Z,19.41
2023-06-08T07:55:24.454Z,19.53
2023-06-08T07:58:26.619Z,19.58
2023-06-08T08:01:29.049Z,19.55
2023-06-08T08:04:31.623Z,19.55
2023-06-08T08:07:33.866Z,19.43
2023-06-08T08:10:36.880Z,19.53
2023-06-08T08:13:39.850Z,19.56
2023-06-08T08:16:42.340Z,19.53
2023-06-08T08:19:45.791Z,19.68
2023-06-08T08:22:48.972Z,19.83
2023-06-08T08:25:52.047Z,19.91
2023-06-08T08:28:54.492Z,19.88
2023-06-08T08:31:57.462Z,19.90
2023-06-08T08:35:00.176Z,20.04
2023-06-08T08:38:02.372Z,20.06
2023-06-08T08:41:08.219Z,20.04
2023-06-08T08:44:14.672Z,20.19
2023-06-08T08:47:18.300Z,20.18
2023-06-08T08:50:22.592Z,20.22
2023-06-08T08:53:32.094Z,20.15
2023-06-08T08:56:39.131Z,20.30
2023-06-08T08:59:42.633Z,20.41
2023-06-08T09:02:44.862Z,20.59
2023-06-08T09:05:52.603Z,20.72
2023-06-08T09:08:55.922Z,20.63
2023-06-08T09:12:03.140Z,20.67
2023-06-08T09:15:06.512Z,20.65
2023-06-08T09:18:17.988Z,20.77
2023-06-08T09:21:24.719Z,20.93
2023-06-08T09:24:28.277Z,21.04
2023-06-08T09:27:32.335Z,21.11
2023-06-08T09:30:36.961Z,21.25
2023-06-08T09:33:39.338Z,21.23
2023-06-08T09:36:41.854Z,21.30
2023-06-08T09:39:46.479Z,21.33
2023-06-08T09:42:54.889Z,21.31
2023-06-08T09:45:57.990Z,21.49
2023-06-08T09:49:00.839Z,21.72
2023-06-08T09:52:07.593Z,21.80
2023-06-08T09:55:11.640Z,21.78
2023-06-08T09:58:14.506Z,21.66
2023-06-08T10:01:19.278Z,21.60
2023-06-08T10:04:33.486Z,21.46
2023-06-08T10:07:40.739Z,21.46
2023-06-08T10:10:43.719Z,21.54
2023-06-08T10:13:46.254Z,21.53
2023-06-08T10:16:49.282Z,21.46
2023-06-08T10:19:51.528Z,21.41
2023-06-08T10:22:54.811Z,21.43
2023-06-08T10:25:57.584Z,21.39
2023-06-08T10:29:21.024Z,21.49
2023-06-08T10:32:31.322Z,21.45
2023-06-08T10:35:33.904Z,21.45
2023-06-08T10:38:57.008Z,21.45
2023-06-08T10:42:03.052Z,21.45
2023-06-08T10:45:08.260Z,21.55
2023-06-08T10:48:14.905Z,21.58
2023-06-08T10:51:25.859Z,21.66
2023-06-08T10:54:29.185Z,21.72
2023-06-08T10:57:36.404Z,21.81
2023-06-08T11:00:44.307Z,21.72
2023-06-08T11:03:48.264Z,21.73
2023-06-08T11:06:51.356Z,21.85
2023-06-08T11:09:53.908Z,22.12
2023-06-08T11:12:58.369Z,22.44
2023-06-08T11:16:02.018Z,22.66
2023-06-08T11:19:10.119Z,22.92
2023-06-08T11:22:13.201Z,22.90
2023-06-08T11:25:20.182Z,22.95
2023-06-08T11:28:22.357Z,23.05
2023-06-08T11:31:33.485Z,22.90
2023-06-08T11:34:35.882Z,23.06
2023-06-08T11:37:40.546Z,23.05
2023-06-08T11:40:43.907Z,22.77
2023-06-08T11:43:50.487Z,22.65
2023-06-08T11:46:53.723Z,22.66
2023-06-08T11:50:00.211Z,22.86
2023-06-08T11:53:03.566Z,22.81
2023-06-08T11:56:09.924Z,22.99
2023-06-08T11:59:16.735Z,23.21
2023-06-08T12:02:23.603Z,23.42
2023-06-08T12:05:27.372Z,23.78
2023-06-08T12:08:29.795Z,23.87
2023-06-08T12:11:36.569Z,24.08
2023-06-08T12:14:46.567Z,24.43
2023-06-08T12:17:49.150Z,24.26
2023-06-08T12:20:54.864Z,24.33
2023-06-08T12:23:58.485Z,24.84
2023-06-08T12:27:00.758Z,24.92
2023-06-08T12:30:07.692Z,25.24
2023-06-08T12:33:12.522Z,25.05
2023-06-08T12:36:15.490Z,25.00
2023-06-08T12:39:17.731Z,24.57
2023-06-08T12:42:21.928Z,24.23
2023-06-08T12:45:24.351Z,23.92
2023-06-08T12:48:26.976Z,23.62
2023-06-08T12:51:29.294Z,23.83
2023-06-08T12:54:34.055Z,24.26
2023-06-08T12:57:37.624Z,24.00
2023-06-08T13:00:40.057Z,23.87
2023-06-08T13:03:44.139Z,23.81
2023-06-08T13:06:47.145Z,23.63
2023-06-08T13:09:49.379Z,23.90
2023-06-08T13:12:51.783Z,24.24
2023-06-08T13:15:55.379Z,24.36
2023-06-08T13:18:57.936Z,24.29
2023-06-08T13:22:00.400Z,24.06
2023-06-08T13:25:02.962Z,23.77
2023-06-08T13:28:07.375Z,23.75
2023-06-08T13:31:09.971Z,23.67
2023-06-08T13:34:12.405Z,23.63
2023-06-08T13:37:14.820Z,23.54
2023-06-08T13:40:17.031Z,23.48
2023-06-08T13:43:19.517Z,23.47
2023-06-08T13:46:23.719Z,23.66
2023-06-08T13:49:26.229Z,23.80
2023-06-08T13:52:30.503Z,23.75
2023-06-08T13:55:33.376Z,23.60
2023-06-08T13:58:35.648Z,23.47
2023-06-08T14:01:38.077Z,23.43
2023-06-08T14:04:40.855Z,23.49
2023-06-08T14:07:45.520Z,23.63
2023-06-08T14:10:48.140Z,23.81
2023-06-08T14:13:50.322Z,23.87
2023-06-08T14:16:52.772Z,23.82
2023-06-08T14:19:55.118Z,23.90
2023-06-08T14:22:57.666Z,24.21
2023-06-08T14:25:59.829Z,24.48
2023-06-08T14:29:02.267Z,24.58
2023-06-08T14:32:04.846Z,24.80
2023-06-08T14:35:08.493Z,24.79
2023-06-08T14:38:13.971Z,24.54
2023-06-08T14:41:16.740Z,24.26
2023-06-08T14:44:18.899Z,24.09
2023-06-08T14:47:21.570Z,24.02
2023-06-08T14:50:23.788Z,24.02
2023-06-08T14:53:26.717Z,23.90
2023-06-08T14:56:31.675Z,23.95
2023-06-08T14:59:34.320Z,23.98
2023-06-08T15:02:37.036Z,23.88
2023-06-08T15:05:41.486Z,23.71
2023-06-08T15:08:43.664Z,23.64
2023-06-08T15:11:46.132Z,23.69
2023-06-08T15:14:51.665Z,23.65
2023-06-08T15:17:54.471Z,23.66
2023-06-08T15:20:56.670Z,23.66
2023-06-08T15:23:59.143Z,23.53
2023-06-08T15:27:01.331Z,23.33
2023-06-08T15:30:05.853Z,23.30
2023-06-08T15:33:08.229Z,23.34
2023-06-08T15:36:11.101Z,23.28
2023-06-08T15:39:13.324Z,23.27
2023-06-08T15:42:18.891Z,23.25
2023-06-08T15:45:21.563Z,23.19
2023-06-08T15:48:24.121Z,23.23
